עמוד ראשי
METAR-TAF:

METAR-TAF

שדות תעופה :

Yasuj, איראן

קו רוחב: 30-41-49N, קו אורך: 051-33E, גובה: 1825מטר

תצפית מזג אוויר נוכחית

הדו"ח נערך לפני 48דקות, בשעה 19:00 UTC
רוח רגועה
טמפרטורת 20 צלסיוס
לחות 32%
לחץ 1016 hPa
ראות 10 קילומטר או יותר
ללא עננים שבסיסם נמוך מ 5000 רגל או קומולונימבוס

METAR: OISY 131900Z 00000KT CAVOK 20/03 Q1016

זמן: 00:18 (19:48 UTC)


TAF: חסר

תצפיות ותחזיות מזג אוויר לגבי יותר מ- 4,000 שדות תעופה ברחבי העולם. דוחות METAR ו- TAF.

התחנות הזמינות מסומנות בנקודות צהובות ואדומות על גבי המפה.

העבר את העכבר לנקודה הצבעונית על מנת לראות את שם התחנה.

לאחר מכן, לחץ כדי לראות את תוכן ואת תחזיות מזג האוויר.

כדי לשנות את המפה: לחץ על הכפתורים הירוקים עם הפלוס השחור כדי להתקרב; על הכפתור הירוק עם המקף כדי להתרחק; או בחיצים הירוקים למפות סמוכות.


METAR-TAF: